Chitre, Panama
Current Conditions -  °F | °C
As of 10:00 PM on Wednesday 22 Oct 2014 (Local Time) from MPMG Reporting Station
Few Clouds Few Clouds  
Wind Chill: 82°   Ceiling: Unl
Heat Index: 91°   Visibility: 6mi
Dew Point: 77°   Wind: 1mph
Humidity: 84%   Direction: NA
Pressure: 29.85"   Gusts: NA
Location:  7.97°N, 80.42°W
Report Text: MPMG 230300Z VRB01KT 9999 FEW018 28/25 Q1011 NOSIG
Loading
Personal Weather Stations






























Interactive Weather Map
Tropical Storm Tracking
New forecast layout! Learn more

10-Day Weather Forecast

Advertisements
Track Severe Weather on mobile